AirNav   Air Wisconsin pilot careers
 
 987 users online  

38WA Blakely Island Airport
Blakely Island, Washington, USA

GOING TO BLAKELY ISLAND?


FAA INFORMATION EFFECTIVE 04 JANUARY 2018

Location

FAA Identifier: 38WA
Lat/Long: 48-34-44.3700N / 122-49-34.6470W
48-34.739500N / 122-49.577450W
48.5789917 / -122.8262908
(estimated)
Elevation: 66 ft. / 20.1 m (surveyed)
Variation: 21E (1985)
Time zone: UTC -8 (UTC -7 during Daylight Saving Time)
Zip code: 98222

Airport Operations

Airport use: Private use. Permission required prior to landing
Activation date: 01/1948
Control tower: no
ARTCC: SEATTLE CENTER
FSS: SEATTLE FLIGHT SERVICE STATION
Attendance: CONTINUOUS
Wind indicator: lighted
Segmented circle: no
Lights: ACTVT MIRL RY 01/19 - 122.9.

Airport Communications

WX AWOS-3 at ORS (8 nm NW): 135.425 (360-376-6045)
WX ASOS at FHR (9 nm SW): 135.675 (360-378-8491)
WX ASOS at BLI (17 nm NE): PHONE 360-671-8688
WX AWOS-3 at BVS (17 nm E): 121.125 (360-757-7767)
  • MULTICOM FREQ 122.9.

Nearby radio navigation aids

VOR radial/distance  VOR name  Freq  Var
CVVr330/20.5PENN COVE VOR/DME117.2019E
HUHr184/24.1WHATCOM VORTAC113.0020E
YYJr092/27.6VICTORIA VOR/DME113.7017E
YVRr140/32.5VANCOUVER VOR/DME115.9017E

 
NDB name  Hdg/Dist  Freq  Var  ID
FRIDAY HARBOR046/8.828417EFHR ..-. .... .-.
SKAGIT/BAY VIEW276/17.524016EBVS -... ...- ...

Airport Services

Runway Information

Runway 1/19

Dimensions: 2200 x 40 ft. / 671 x 12 m
ADDNL 200 X 40' OVRNS & TURBC BOTH ENDS RWY 01/19.
Surface: asphalt
Runway edge lights: medium intensity
RUNWAY 1  RUNWAY 19
Traffic pattern: leftright
Displaced threshold: 252 ft.122 ft.
Obstructions: trees, 2000 ft. from runwaytrees, 2000 ft. from runway

Airport Ownership and Management from official FAA records

Ownership: Privately-owned
Owner: BLAKELY ISLAND MAINT COM
355 BLAKELY DR
BLAKELY ISLAND, WA 98222
Manager: KEVIN CLARK
355 BLAKELY DR
BLAKLEY ISLAND, WA 98222
Phone 360-375-6624
425-827-2146 (H) KEVIN.E.CLARK2@BOEING.COM (E)

Airport Operational Statistics

Aircraft based on the field: 11
Single engine airplanes: 5
Multi engine airplanes: 6
    

Additional Remarks

TREES BOTH SIDES OF RWY PENT TRSNL SFC.
WATCH FOR DEER ON RWY.
MIDDLE RY 01/19 HIGHER THAN EITHER END. CHECK ARPT TFC FM RUN-UP PAD CENTER OF FLD BEFORE TKOF.

Instrument Procedures

There are no published instrument procedures at 38WA.

Some nearby airports with instrument procedures:

KORS - Orcas Island Airport (8 nm NW)
KFHR - Friday Harbor Airport (9 nm SW)
KNUW - Whidbey Island Naval Air Station (Ault Field) (15 nm SE)
KBLI - Bellingham International Airport (17 nm NE)
KBVS - Skagit Regional Airport (17 nm E)
 
Loc | Ops | Rwys | IFR | FBO | Links
Com | Nav | Svcs | Stats | Notes


 
Area around 38WA (Blakely Island Airport)
 
Road maps at: MapQuest Bing Google
 
Aerial photo
WARNING: Photo may not be current or correct
Aerial photo of 38WA (Blakely Island Airport)
Photo by Domenick Venezia, 2003-09

Do you have a better or more recent aerial photo of Blakely Island Airport that you would like to share? If so, please send us your photo.

 
Sectional chart

 
Airport distance calculator
Flying to Blakely Island Airport? Find the distance to fly.

From to 38WA

Sunrise and sunset
Times for 21-Jan-2018
 Local
(UTC-8)
 Zulu
(UTC)
Morning civil twilight07:1915:19
Sunrise07:5415:54
Sunset16:5100:51
Evening civil twilight17:2601:26

Current date and time
Zulu (UTC)  22-Jan-2018 00:57:40
Local (UTC-8)  21-Jan-2018 16:57:40
 
METAR
KORS 
8nm N 
220035Z AUTO 18009KT 10SM FEW065 SCT075 SCT095 06/05 A2981 RMK AO2
74S 
8nm SE 
SuperAWOS
220046Z AUTO 00000KT 10SM 06/05 A2983
KFHR 
9nm SW 
220053Z AUTO 23007KT 200V270 10SM SCT040 BKN047 BKN060 06/03 A2985 RMK AO2 RAE06 SLP107 P0000 T00610028
CWEZ 
14nm NW 
220000Z AUTO 22020G26KT 07/04 RMK AO1 3018 PK WND 22026/2358 SLP086 T00670042 50020
KNUW 
15nm SE 
220020Z 17015G22KT 10SM -RA SCT021 BKN044 BKN055 09/05 A2986 RMK AO2 RAB05 P0000 T00890050 $
CWZO 
16nm W 
220000Z AUTO 00021KT RMK AO1
KBVS 
18nm E 
220035Z AUTO 17014KT 10SM OVC026 08/04 A2984 RMK A01
KBLI 
18nm NE 
220053Z 14011KT 10SM -RA BKN032 06/04 A2982 RMK AO2 RAB13 SLP105 P0008 T00610044
CWYJ 
20nm SW 
220000Z AUTO 20004KT 06/03 RMK AO1 5PAST HR 3020 PK WND 24017/2318 SLP091 P0002 T00560027 50012
TAF
KNUW 
15nm SE 
2123/2223 19012G20KT 9000 -SHRA BKN025 BKN060 620309 510805 QNH2978INS FM220400 17010KT 9999 -SHRA FEW010 BKN025 BKN040 620309 50000 QNH2987INS FM220800 17010KT 9999 SCT020 BKN040 OVC060 620309 QNH2990INS TEMPO 2208/2213 6000 -SHRA BKN015 BKN035 FM221300 14008KT 6000 -SHRA BKN015 BKN035 620309 QNH3003INS TEMPO 2213/2219 9000 -DZ BR BKN008 FM222100 15010KT 9999 -SHRA SCT015 BKN025 620303 QNH3018INS T07/2212Z T09/2222Z FS3102
KBLI 
18nm NE 
211750Z 2118/2218 15025G40KT P6SM -RA SCT025 OVC040 WS020/18050KT FM212000 17018G28KT P6SM VCSH SCT025 BKN040 TEMPO 2123/2201 6SM -SHRA BR BKN025 OVC040 FM221200 16011G18KT P6SM VCSH SCT012 BKN020 OVC030 TEMPO 2212/2216 6SM -SHRA BR BKN012 OVC020
NOTAMs
Click for the latest NOTAMs
NOTAMs are issued by the DoD/FAA and will open in a separate window not controlled by AirNav.

 

 
 

Would you like to see your business listed on this page?

 If your business provides an interesting product or service to pilots, flight crews, aircraft, or users of the Blakely Island Airport, you should consider listing it here.  To start the listing process, click on the button below
 
Add a business
 

Other Pages about Blakely Island Airport

www.rockisland.com/...
 
Update a link
 
Copyright © AirNav, LLC. All rights reserved. Privacy Policy  Contact